sensor_id;sensor_type;location;lat;lon;timestamp;P1;durP1;ratioP1;P2;durP2;ratioP2
45764;SDS011;31474;45.332;10.230;2023-05-10T00:01:37;12.70;;;8.93;;
45764;SDS011;31474;45.332;10.230;2023-05-10T00:04:03;12.75;;;8.68;;
45764;SDS011;31474;45.332;10.230;2023-05-10T00:06:29;11.75;;;8.23;;
45764;SDS011;31474;45.332;10.230;2023-05-10T00:08:55;12.18;;;8.73;;
45764;SDS011;31474;45.332;10.230;2023-05-10T00:11:20;10.18;;;8.32;;
45764;SDS011;31474;45.332;10.230;2023-05-10T00:13:46;12.55;;;8.70;;
45764;SDS011;31474;45.332;10.230;2023-05-10T00:16:12;12.18;;;8.95;;
45764;SDS011;31474;45.332;10.230;2023-05-10T00:18:38;10.73;;;9.13;;
45764;SDS011;31474;45.332;10.230;2023-05-10T00:21:04;13.35;;;9.15;;
45764;SDS011;31474;45.332;10.230;2023-05-10T00:23:30;12.90;;;9.43;;
45764;SDS011;31474;45.332;10.230;2023-05-10T00:25:56;12.38;;;9.80;;
45764;SDS011;31474;45.332;10.230;2023-05-10T00:28:21;13.98;;;10.68;;
45764;SDS011;31474;45.332;10.230;2023-05-10T00:30:47;13.10;;;10.57;;
45764;SDS011;31474;45.332;10.230;2023-05-10T00:33:12;16.20;;;10.20;;
45764;SDS011;31474;45.332;10.230;2023-05-10T00:35:38;14.50;;;10.52;;
45764;SDS011;31474;45.332;10.230;2023-05-10T00:38:04;14.77;;;10.27;;
45764;SDS011;31474;45.332;10.230;2023-05-10T00:40:29;15.73;;;10.68;;
45764;SDS011;31474;45.332;10.230;2023-05-10T00:42:55;13.15;;;9.38;;
45764;SDS011;31474;45.332;10.230;2023-05-10T00:45:22;16.35;;;10.43;;
45764;SDS011;31474;45.332;10.230;2023-05-10T00:47:48;13.23;;;10.95;;
45764;SDS011;31474;45.332;10.230;2023-05-10T00:50:14;13.05;;;9.27;;
45764;SDS011;31474;45.332;10.230;2023-05-10T00:52:40;13.77;;;9.90;;
45764;SDS011;31474;45.332;10.230;2023-05-10T00:55:07;14.10;;;9.40;;
45764;SDS011;31474;45.332;10.230;2023-05-10T00:57:34;14.73;;;10.70;;
45764;SDS011;31474;45.332;10.230;2023-05-10T01:00:00;13.85;;;9.43;;
45764;SDS011;31474;45.332;10.230;2023-05-10T01:02:27;16.23;;;10.35;;
45764;SDS011;31474;45.332;10.230;2023-05-10T01:04:53;14.30;;;9.85;;
45764;SDS011;31474;45.332;10.230;2023-05-10T01:07:19;12.45;;;9.15;;
45764;SDS011;31474;45.332;10.230;2023-05-10T01:09:45;14.10;;;9.57;;
45764;SDS011;31474;45.332;10.230;2023-05-10T01:12:11;17.00;;;9.52;;
45764;SDS011;31474;45.332;10.230;2023-05-10T01:14:37;15.32;;;9.82;;
45764;SDS011;31474;45.332;10.230;2023-05-10T01:17:03;13.23;;;10.15;;
45764;SDS011;31474;45.332;10.230;2023-05-10T01:19:31;12.02;;;8.88;;
45764;SDS011;31474;45.332;10.230;2023-05-10T01:22:02;11.63;;;8.57;;
45764;SDS011;31474;45.332;10.230;2023-05-10T01:35:51;12.68;;;9.07;;
45764;SDS011;31474;45.332;10.230;2023-05-10T01:38:33;15.27;;;11.43;;
45764;SDS011;31474;45.332;10.230;2023-05-10T01:47:06;13.63;;;10.10;;
45764;SDS011;31474;45.332;10.230;2023-05-10T01:49:39;16.48;;;9.98;;
45764;SDS011;31474;45.332;10.230;2023-05-10T01:52:12;16.00;;;11.02;;
45764;SDS011;31474;45.332;10.230;2023-05-10T01:54:41;18.10;;;10.85;;
45764;SDS011;31474;45.332;10.230;2023-05-10T01:57:12;14.65;;;10.88;;
45764;SDS011;31474;45.332;10.230;2023-05-10T01:59:40;13.73;;;9.90;;
45764;SDS011;31474;45.332;10.230;2023-05-10T02:02:10;14.27;;;10.05;;
45764;SDS011;31474;45.332;10.230;2023-05-10T02:04:38;14.20;;;10.02;;
45764;SDS011;31474;45.332;10.230;2023-05-10T02:07:06;10.88;;;9.45;;
45764;SDS011;31474;45.332;10.230;2023-05-10T02:09:33;12.32;;;9.57;;
45764;SDS011;31474;45.332;10.230;2023-05-10T02:12:01;14.93;;;10.25;;
45764;SDS011;31474;45.332;10.230;2023-05-10T02:14:29;10.80;;;8.38;;
45764;SDS011;31474;45.332;10.230;2023-05-10T02:16:57;12.20;;;8.90;;
45764;SDS011;31474;45.332;10.230;2023-05-10T02:19:24;11.35;;;7.57;;
45764;SDS011;31474;45.332;10.230;2023-05-10T02:21:52;11.05;;;7.93;;
45764;SDS011;31474;45.332;10.230;2023-05-10T02:24:18;10.52;;;8.55;;
45764;SDS011;31474;45.332;10.230;2023-05-10T02:26:45;10.75;;;7.50;;
45764;SDS011;31474;45.332;10.230;2023-05-10T02:29:12;8.18;;;6.75;;
45764;SDS011;31474;45.332;10.230;2023-05-10T02:31:38;8.50;;;6.20;;
45764;SDS011;31474;45.332;10.230;2023-05-10T02:34:08;7.85;;;6.05;;
45764;SDS011;31474;45.332;10.230;2023-05-10T02:36:35;9.95;;;5.95;;
45764;SDS011;31474;45.332;10.230;2023-05-10T02:39:02;7.20;;;5.75;;
45764;SDS011;31474;45.332;10.230;2023-05-10T02:41:30;5.97;;;4.63;;
45764;SDS011;31474;45.332;10.230;2023-05-10T02:43:59;7.78;;;5.38;;
45764;SDS011;31474;45.332;10.230;2023-05-10T02:46:26;7.05;;;5.38;;
45764;SDS011;31474;45.332;10.230;2023-05-10T02:48:51;6.07;;;4.95;;
45764;SDS011;31474;45.332;10.230;2023-05-10T02:51:18;6.95;;;5.03;;
45764;SDS011;31474;45.332;10.230;2023-05-10T02:53:46;6.18;;;4.97;;
45764;SDS011;31474;45.332;10.230;2023-05-10T02:56:15;5.38;;;4.35;;
45764;SDS011;31474;45.332;10.230;2023-05-10T02:58:56;7.97;;;4.00;;
45764;SDS011;31474;45.332;10.230;2023-05-10T03:01:22;7.22;;;4.47;;
45764;SDS011;31474;45.332;10.230;2023-05-10T03:03:48;4.43;;;3.80;;
45764;SDS011;31474;45.332;10.230;2023-05-10T03:06:14;6.68;;;3.80;;
45764;SDS011;31474;45.332;10.230;2023-05-10T03:08:41;5.88;;;4.18;;
45764;SDS011;31474;45.332;10.230;2023-05-10T03:11:22;5.80;;;4.72;;
45764;SDS011;31474;45.332;10.230;2023-05-10T03:16:30;5.85;;;4.10;;
45764;SDS011;31474;45.332;10.230;2023-05-10T03:19:02;8.90;;;4.18;;
45764;SDS011;31474;45.332;10.230;2023-05-10T03:21:35;7.00;;;4.97;;
45764;SDS011;31474;45.332;10.230;2023-05-10T03:26:33;4.63;;;4.10;;
45764;SDS011;31474;45.332;10.230;2023-05-10T03:29:01;5.05;;;4.00;;
45764;SDS011;31474;45.332;10.230;2023-05-10T03:31:27;4.40;;;3.55;;
45764;SDS011;31474;45.332;10.230;2023-05-10T03:33:53;4.75;;;4.25;;
45764;SDS011;31474;45.332;10.230;2023-05-10T03:36:19;5.93;;;3.72;;
45764;SDS011;31474;45.332;10.230;2023-05-10T03:38:44;4.32;;;3.92;;
45764;SDS011;31474;45.332;10.230;2023-05-10T03:41:10;7.55;;;3.47;;
45764;SDS011;31474;45.332;10.230;2023-05-10T03:43:36;7.70;;;4.18;;
45764;SDS011;31474;45.332;10.230;2023-05-10T03:46:05;4.88;;;3.38;;
45764;SDS011;31474;45.332;10.230;2023-05-10T03:48:31;4.53;;;3.75;;
45764;SDS011;31474;45.332;10.230;2023-05-10T03:50:57;6.88;;;4.18;;
45764;SDS011;31474;45.332;10.230;2023-05-10T03:53:23;4.30;;;3.80;;
45764;SDS011;31474;45.332;10.230;2023-05-10T03:55:49;4.13;;;3.53;;
45764;SDS011;31474;45.332;10.230;2023-05-10T03:58:14;4.05;;;3.58;;
45764;SDS011;31474;45.332;10.230;2023-05-10T04:00:40;5.00;;;3.60;;
45764;SDS011;31474;45.332;10.230;2023-05-10T04:03:09;4.50;;;3.53;;
45764;SDS011;31474;45.332;10.230;2023-05-10T04:05:35;6.50;;;3.88;;
45764;SDS011;31474;45.332;10.230;2023-05-10T04:08:01;5.25;;;3.70;;
45764;SDS011;31474;45.332;10.230;2023-05-10T04:10:27;6.63;;;4.50;;
45764;SDS011;31474;45.332;10.230;2023-05-10T04:12:53;3.75;;;3.40;;
45764;SDS011;31474;45.332;10.230;2023-05-10T04:15:18;8.20;;;3.78;;
45764;SDS011;31474;45.332;10.230;2023-05-10T04:17:44;6.25;;;3.42;;
45764;SDS011;31474;45.332;10.230;2023-05-10T04:20:10;5.15;;;3.63;;
45764;SDS011;31474;45.332;10.230;2023-05-10T04:22:36;6.50;;;4.07;;
45764;SDS011;31474;45.332;10.230;2023-05-10T04:25:02;6.97;;;4.22;;
45764;SDS011;31474;45.332;10.230;2023-05-10T04:27:28;6.55;;;3.65;;
45764;SDS011;31474;45.332;10.230;2023-05-10T04:29:53;5.18;;;3.30;;
45764;SDS011;31474;45.332;10.230;2023-05-10T04:32:19;5.15;;;3.88;;
45764;SDS011;31474;45.332;10.230;2023-05-10T04:34:45;4.97;;;3.67;;
45764;SDS011;31474;45.332;10.230;2023-05-10T04:37:11;4.30;;;3.75;;
45764;SDS011;31474;45.332;10.230;2023-05-10T04:39:36;5.00;;;3.42;;
45764;SDS011;31474;45.332;10.230;2023-05-10T04:42:02;5.47;;;3.50;;
45764;SDS011;31474;45.332;10.230;2023-05-10T04:44:30;4.47;;;3.38;;
45764;SDS011;31474;45.332;10.230;2023-05-10T04:46:56;4.88;;;3.22;;
45764;SDS011;31474;45.332;10.230;2023-05-10T04:49:22;4.68;;;4.15;;
45764;SDS011;31474;45.332;10.230;2023-05-10T04:51:47;4.18;;;3.33;;
45764;SDS011;31474;45.332;10.230;2023-05-10T04:54:13;4.32;;;3.45;;
45764;SDS011;31474;45.332;10.230;2023-05-10T04:56:39;4.75;;;3.92;;
45764;SDS011;31474;45.332;10.230;2023-05-10T04:59:05;6.20;;;3.72;;
45764;SDS011;31474;45.332;10.230;2023-05-10T05:01:31;5.32;;;3.83;;
45764;SDS011;31474;45.332;10.230;2023-05-10T05:03:56;4.40;;;3.50;;
45764;SDS011;31474;45.332;10.230;2023-05-10T05:06:22;4.82;;;3.67;;
45764;SDS011;31474;45.332;10.230;2023-05-10T05:08:49;4.50;;;3.92;;
45764;SDS011;31474;45.332;10.230;2023-05-10T05:11:15;3.72;;;3.38;;
45764;SDS011;31474;45.332;10.230;2023-05-10T05:13:42;5.07;;;3.55;;
45764;SDS011;31474;45.332;10.230;2023-05-10T05:16:08;5.45;;;3.92;;
45764;SDS011;31474;45.332;10.230;2023-05-10T05:18:33;7.55;;;4.05;;
45764;SDS011;31474;45.332;10.230;2023-05-10T05:20:59;5.00;;;4.10;;
45764;SDS011;31474;45.332;10.230;2023-05-10T05:23:26;5.05;;;3.65;;
45764;SDS011;31474;45.332;10.230;2023-05-10T05:25:52;4.65;;;3.78;;
45764;SDS011;31474;45.332;10.230;2023-05-10T05:28:18;4.53;;;3.95;;
45764;SDS011;31474;45.332;10.230;2023-05-10T05:30:45;5.63;;;3.40;;
45764;SDS011;31474;45.332;10.230;2023-05-10T05:33:10;5.18;;;4.18;;
45764;SDS011;31474;45.332;10.230;2023-05-10T05:35:36;4.75;;;3.28;;
45764;SDS011;31474;45.332;10.230;2023-05-10T05:38:02;4.82;;;3.83;;
45764;SDS011;31474;45.332;10.230;2023-05-10T05:40:27;4.95;;;3.55;;
45764;SDS011;31474;45.332;10.230;2023-05-10T05:42:53;7.88;;;3.92;;
45764;SDS011;31474;45.332;10.230;2023-05-10T05:45:18;4.75;;;3.53;;
45764;SDS011;31474;45.332;10.230;2023-05-10T05:47:45;6.35;;;3.90;;
45764;SDS011;31474;45.332;10.230;2023-05-10T05:50:10;5.05;;;4.13;;
45764;SDS011;31474;45.332;10.230;2023-05-10T05:52:36;6.97;;;3.47;;
45764;SDS011;31474;45.332;10.230;2023-05-10T05:55:02;4.05;;;3.55;;
45764;SDS011;31474;45.332;10.230;2023-05-10T05:57:27;4.05;;;2.97;;
45764;SDS011;31474;45.332;10.230;2023-05-10T05:59:53;4.95;;;3.55;;
45764;SDS011;31474;45.332;10.230;2023-05-10T06:02:19;7.45;;;3.90;;
45764;SDS011;31474;45.332;10.230;2023-05-10T06:04:44;4.95;;;3.58;;
45764;SDS011;31474;45.332;10.230;2023-05-10T06:07:10;3.75;;;3.03;;
45764;SDS011;31474;45.332;10.230;2023-05-10T06:09:36;4.05;;;3.10;;
45764;SDS011;31474;45.332;10.230;2023-05-10T06:12:01;4.97;;;3.55;;
45764;SDS011;31474;45.332;10.230;2023-05-10T06:14:27;5.47;;;3.50;;
45764;SDS011;31474;45.332;10.230;2023-05-10T06:16:53;5.75;;;3.42;;
45764;SDS011;31474;45.332;10.230;2023-05-10T06:19:18;5.57;;;3.58;;
45764;SDS011;31474;45.332;10.230;2023-05-10T06:21:44;5.28;;;4.50;;
45764;SDS011;31474;45.332;10.230;2023-05-10T06:24:09;4.20;;;3.35;;
45764;SDS011;31474;45.332;10.230;2023-05-10T06:26:35;3.95;;;3.50;;
45764;SDS011;31474;45.332;10.230;2023-05-10T06:29:01;7.72;;;3.60;;
45764;SDS011;31474;45.332;10.230;2023-05-10T06:31:26;4.22;;;3.45;;
45764;SDS011;31474;45.332;10.230;2023-05-10T06:33:52;4.03;;;2.97;;
45764;SDS011;31474;45.332;10.230;2023-05-10T06:36:18;6.15;;;3.75;;
45764;SDS011;31474;45.332;10.230;2023-05-10T06:38:43;7.47;;;4.82;;
45764;SDS011;31474;45.332;10.230;2023-05-10T06:41:09;7.38;;;4.38;;
45764;SDS011;31474;45.332;10.230;2023-05-10T06:43:35;5.15;;;3.78;;
45764;SDS011;31474;45.332;10.230;2023-05-10T06:46:01;5.80;;;3.08;;
45764;SDS011;31474;45.332;10.230;2023-05-10T06:48:27;3.30;;;2.92;;
45764;SDS011;31474;45.332;10.230;2023-05-10T06:50:53;5.68;;;3.72;;
45764;SDS011;31474;45.332;10.230;2023-05-10T06:53:18;4.63;;;3.60;;
45764;SDS011;31474;45.332;10.230;2023-05-10T06:55:44;3.60;;;2.88;;
45764;SDS011;31474;45.332;10.230;2023-05-10T06:58:10;4.82;;;3.22;;
45764;SDS011;31474;45.332;10.230;2023-05-10T07:00:36;4.95;;;3.72;;
45764;SDS011;31474;45.332;10.230;2023-05-10T07:03:05;5.15;;;3.55;;
45764;SDS011;31474;45.332;10.230;2023-05-10T07:05:31;6.05;;;3.40;;
45764;SDS011;31474;45.332;10.230;2023-05-10T07:07:56;4.43;;;3.50;;
45764;SDS011;31474;45.332;10.230;2023-05-10T07:10:22;4.70;;;3.58;;
45764;SDS011;31474;45.332;10.230;2023-05-10T07:12:48;5.15;;;3.65;;
45764;SDS011;31474;45.332;10.230;2023-05-10T07:15:13;6.45;;;3.55;;
45764;SDS011;31474;45.332;10.230;2023-05-10T07:17:40;3.33;;;3.00;;
45764;SDS011;31474;45.332;10.230;2023-05-10T07:20:06;5.00;;;3.70;;
45764;SDS011;31474;45.332;10.230;2023-05-10T07:22:32;4.70;;;3.28;;
45764;SDS011;31474;45.332;10.230;2023-05-10T07:24:58;10.15;;;4.18;;
45764;SDS011;31474;45.332;10.230;2023-05-10T07:27:24;4.03;;;3.13;;
45764;SDS011;31474;45.332;10.230;2023-05-10T07:29:50;6.30;;;5.68;;
45764;SDS011;31474;45.332;10.230;2023-05-10T07:32:15;8.18;;;4.95;;
45764;SDS011;31474;45.332;10.230;2023-05-10T07:34:41;3.97;;;3.58;;
45764;SDS011;31474;45.332;10.230;2023-05-10T07:37:06;6.97;;;3.60;;
45764;SDS011;31474;45.332;10.230;2023-05-10T07:39:32;4.35;;;3.03;;
45764;SDS011;31474;45.332;10.230;2023-05-10T07:41:58;6.15;;;3.47;;
45764;SDS011;31474;45.332;10.230;2023-05-10T07:44:23;5.28;;;4.00;;
45764;SDS011;31474;45.332;10.230;2023-05-10T07:46:49;4.80;;;3.38;;
45764;SDS011;31474;45.332;10.230;2023-05-10T07:49:15;5.03;;;3.80;;
45764;SDS011;31474;45.332;10.230;2023-05-10T07:51:41;3.15;;;2.85;;
45764;SDS011;31474;45.332;10.230;2023-05-10T07:54:07;4.20;;;2.70;;
45764;SDS011;31474;45.332;10.230;2023-05-10T07:56:33;4.20;;;3.03;;
45764;SDS011;31474;45.332;10.230;2023-05-10T07:58:59;3.25;;;2.78;;
45764;SDS011;31474;45.332;10.230;2023-05-10T08:01:26;3.00;;;2.40;;
45764;SDS011;31474;45.332;10.230;2023-05-10T08:03:51;3.60;;;2.78;;
45764;SDS011;31474;45.332;10.230;2023-05-10T08:06:18;4.00;;;2.88;;
45764;SDS011;31474;45.332;10.230;2023-05-10T08:08:47;4.55;;;2.78;;
45764;SDS011;31474;45.332;10.230;2023-05-10T08:11:17;5.07;;;2.70;;
45764;SDS011;31474;45.332;10.230;2023-05-10T08:13:43;5.65;;;2.95;;
45764;SDS011;31474;45.332;10.230;2023-05-10T08:16:09;3.67;;;2.95;;
45764;SDS011;31474;45.332;10.230;2023-05-10T08:18:36;3.03;;;2.70;;
45764;SDS011;31474;45.332;10.230;2023-05-10T08:21:02;3.58;;;2.97;;
45764;SDS011;31474;45.332;10.230;2023-05-10T08:23:28;4.15;;;3.58;;
45764;SDS011;31474;45.332;10.230;2023-05-10T08:25:53;5.20;;;2.85;;
45764;SDS011;31474;45.332;10.230;2023-05-10T08:28:19;4.43;;;2.65;;
45764;SDS011;31474;45.332;10.230;2023-05-10T08:30:45;3.25;;;2.25;;
45764;SDS011;31474;45.332;10.230;2023-05-10T08:33:10;5.80;;;2.33;;
45764;SDS011;31474;45.332;10.230;2023-05-10T08:35:36;5.15;;;2.80;;
45764;SDS011;31474;45.332;10.230;2023-05-10T08:38:01;3.88;;;2.22;;
45764;SDS011;31474;45.332;10.230;2023-05-10T08:40:27;2.40;;;2.20;;
45764;SDS011;31474;45.332;10.230;2023-05-10T08:43:02;3.03;;;2.45;;
45764;SDS011;31474;45.332;10.230;2023-05-10T08:45:32;3.03;;;2.35;;
45764;SDS011;31474;45.332;10.230;2023-05-10T08:48:01;3.63;;;2.50;;
45764;SDS011;31474;45.332;10.230;2023-05-10T08:50:27;5.60;;;2.60;;
45764;SDS011;31474;45.332;10.230;2023-05-10T08:52:55;3.67;;;2.45;;
45764;SDS011;31474;45.332;10.230;2023-05-10T08:55:29;4.22;;;3.00;;
45764;SDS011;31474;45.332;10.230;2023-05-10T08:57:56;3.88;;;2.65;;
45764;SDS011;31474;45.332;10.230;2023-05-10T09:00:22;4.88;;;2.58;;
45764;SDS011;31474;45.332;10.230;2023-05-10T09:02:49;4.85;;;2.90;;
45764;SDS011;31474;45.332;10.230;2023-05-10T09:05:15;5.43;;;3.35;;
45764;SDS011;31474;45.332;10.230;2023-05-10T09:07:41;3.85;;;2.83;;
45764;SDS011;31474;45.332;10.230;2023-05-10T09:10:07;3.92;;;2.83;;
45764;SDS011;31474;45.332;10.230;2023-05-10T09:12:33;5.32;;;3.08;;
45764;SDS011;31474;45.332;10.230;2023-05-10T09:15:00;4.25;;;3.40;;
45764;SDS011;31474;45.332;10.230;2023-05-10T09:17:27;3.55;;;2.92;;
45764;SDS011;31474;45.332;10.230;2023-05-10T09:19:58;3.03;;;2.67;;
45764;SDS011;31474;45.332;10.230;2023-05-10T09:22:25;4.40;;;3.05;;
45764;SDS011;31474;45.332;10.230;2023-05-10T09:25:06;5.55;;;3.78;;
45764;SDS011;31474;45.332;10.230;2023-05-10T09:27:34;5.03;;;3.15;;
45764;SDS011;31474;45.332;10.230;2023-05-10T09:30:01;4.53;;;3.35;;
45764;SDS011;31474;45.332;10.230;2023-05-10T09:32:40;3.63;;;2.88;;
45764;SDS011;31474;45.332;10.230;2023-05-10T09:35:14;6.07;;;3.38;;
45764;SDS011;31474;45.332;10.230;2023-05-10T09:37:41;5.10;;;2.97;;
45764;SDS011;31474;45.332;10.230;2023-05-10T09:40:12;3.65;;;3.13;;
45764;SDS011;31474;45.332;10.230;2023-05-10T09:42:40;6.95;;;3.50;;
45764;SDS011;31474;45.332;10.230;2023-05-10T09:45:07;3.15;;;2.70;;
45764;SDS011;31474;45.332;10.230;2023-05-10T09:47:34;4.03;;;3.10;;
45764;SDS011;31474;45.332;10.230;2023-05-10T09:50:01;5.72;;;3.67;;
45764;SDS011;31474;45.332;10.230;2023-05-10T09:55:26;3.42;;;2.78;;
45764;SDS011;31474;45.332;10.230;2023-05-10T09:58:06;4.05;;;3.35;;
45764;SDS011;31474;45.332;10.230;2023-05-10T10:00:44;3.85;;;3.50;;
45764;SDS011;31474;45.332;10.230;2023-05-10T10:03:16;3.70;;;3.30;;
45764;SDS011;31474;45.332;10.230;2023-05-10T10:05:44;4.85;;;3.42;;
45764;SDS011;31474;45.332;10.230;2023-05-10T10:08:11;3.72;;;3.28;;
45764;SDS011;31474;45.332;10.230;2023-05-10T10:10:37;3.85;;;2.85;;
45764;SDS011;31474;45.332;10.230;2023-05-10T10:13:06;4.70;;;3.25;;
45764;SDS011;31474;45.332;10.230;2023-05-10T10:15:33;4.30;;;3.53;;
45764;SDS011;31474;45.332;10.230;2023-05-10T10:17:59;4.00;;;3.60;;
45764;SDS011;31474;45.332;10.230;2023-05-10T10:20:25;4.63;;;3.90;;
45764;SDS011;31474;45.332;10.230;2023-05-10T10:22:52;5.45;;;3.15;;
45764;SDS011;31474;45.332;10.230;2023-05-10T10:25:19;5.90;;;3.58;;
45764;SDS011;31474;45.332;10.230;2023-05-10T10:33:01;4.97;;;3.75;;
45764;SDS011;31474;45.332;10.230;2023-05-10T10:35:43;5.28;;;3.92;;
45764;SDS011;31474;45.332;10.230;2023-05-10T10:38:12;4.28;;;3.72;;
45764;SDS011;31474;45.332;10.230;2023-05-10T10:40:38;5.60;;;3.97;;
45764;SDS011;31474;45.332;10.230;2023-05-10T10:48:40;5.55;;;3.67;;
45764;SDS011;31474;45.332;10.230;2023-05-10T10:51:11;4.28;;;3.85;;
45764;SDS011;31474;45.332;10.230;2023-05-10T10:53:38;4.70;;;3.70;;
45764;SDS011;31474;45.332;10.230;2023-05-10T10:56:07;6.30;;;3.25;;
45764;SDS011;31474;45.332;10.230;2023-05-10T10:58:34;5.15;;;3.88;;
45764;SDS011;31474;45.332;10.230;2023-05-10T11:01:11;4.40;;;4.00;;
45764;SDS011;31474;45.332;10.230;2023-05-10T11:06:43;4.72;;;3.90;;
45764;SDS011;31474;45.332;10.230;2023-05-10T11:09:09;5.70;;;4.05;;
45764;SDS011;31474;45.332;10.230;2023-05-10T11:11:48;4.93;;;4.10;;
45764;SDS011;31474;45.332;10.230;2023-05-10T11:14:18;4.15;;;3.35;;
45764;SDS011;31474;45.332;10.230;2023-05-10T11:16:47;6.53;;;4.05;;
45764;SDS011;31474;45.332;10.230;2023-05-10T11:19:13;4.60;;;3.53;;
45764;SDS011;31474;45.332;10.230;2023-05-10T11:24:17;4.93;;;3.75;;
45764;SDS011;31474;45.332;10.230;2023-05-10T11:26:45;4.15;;;3.72;;
45764;SDS011;31474;45.332;10.230;2023-05-10T11:29:15;5.07;;;3.80;;
45764;SDS011;31474;45.332;10.230;2023-05-10T11:31:41;4.05;;;3.35;;
45764;SDS011;31474;45.332;10.230;2023-05-10T11:34:08;5.60;;;4.57;;
45764;SDS011;31474;45.332;10.230;2023-05-10T11:36:35;4.40;;;3.63;;
45764;SDS011;31474;45.332;10.230;2023-05-10T11:39:01;5.15;;;3.75;;
45764;SDS011;31474;45.332;10.230;2023-05-10T11:41:28;4.15;;;3.67;;
45764;SDS011;31474;45.332;10.230;2023-05-10T11:43:55;4.25;;;3.85;;
45764;SDS011;31474;45.332;10.230;2023-05-10T11:46:25;5.03;;;3.47;;
45764;SDS011;31474;45.332;10.230;2023-05-10T11:48:55;4.07;;;3.55;;
45764;SDS011;31474;45.332;10.230;2023-05-10T11:51:23;4.38;;;3.78;;
45764;SDS011;31474;45.332;10.230;2023-05-10T11:53:50;4.50;;;3.45;;
45764;SDS011;31474;45.332;10.230;2023-05-10T11:56:18;6.22;;;3.75;;
45764;SDS011;31474;45.332;10.230;2023-05-10T11:58:43;7.13;;;4.30;;
45764;SDS011;31474;45.332;10.230;2023-05-10T12:01:09;4.50;;;3.63;;
45764;SDS011;31474;45.332;10.230;2023-05-10T12:03:35;4.88;;;3.60;;
45764;SDS011;31474;45.332;10.230;2023-05-10T12:06:02;5.03;;;3.72;;
45764;SDS011;31474;45.332;10.230;2023-05-10T12:08:28;3.88;;;3.58;;
45764;SDS011;31474;45.332;10.230;2023-05-10T12:11:06;4.53;;;3.90;;
45764;SDS011;31474;45.332;10.230;2023-05-10T12:13:37;5.05;;;3.92;;
45764;SDS011;31474;45.332;10.230;2023-05-10T12:16:13;4.53;;;3.78;;
45764;SDS011;31474;45.332;10.230;2023-05-10T12:18:40;4.80;;;3.22;;
45764;SDS011;31474;45.332;10.230;2023-05-10T12:21:07;5.13;;;4.10;;
45764;SDS011;31474;45.332;10.230;2023-05-10T12:23:35;6.03;;;3.95;;
45764;SDS011;31474;45.332;10.230;2023-05-10T12:26:02;6.63;;;3.83;;
45764;SDS011;31474;45.332;10.230;2023-05-10T12:28:31;5.07;;;3.58;;
45764;SDS011;31474;45.332;10.230;2023-05-10T12:30:58;3.78;;;3.38;;
45764;SDS011;31474;45.332;10.230;2023-05-10T12:33:24;4.07;;;3.65;;
45764;SDS011;31474;45.332;10.230;2023-05-10T12:35:51;5.35;;;3.47;;
45764;SDS011;31474;45.332;10.230;2023-05-10T12:41:11;4.68;;;3.30;;
45764;SDS011;31474;45.332;10.230;2023-05-10T12:43:38;4.00;;;3.50;;
45764;SDS011;31474;45.332;10.230;2023-05-10T12:46:08;4.97;;;3.50;;
45764;SDS011;31474;45.332;10.230;2023-05-10T12:48:35;3.58;;;3.22;;
45764;SDS011;31474;45.332;10.230;2023-05-10T12:51:02;3.90;;;3.50;;
45764;SDS011;31474;45.332;10.230;2023-05-10T12:53:28;4.95;;;3.70;;
45764;SDS011;31474;45.332;10.230;2023-05-10T12:55:54;3.85;;;3.40;;
45764;SDS011;31474;45.332;10.230;2023-05-10T12:58:19;5.53;;;3.58;;
45764;SDS011;31474;45.332;10.230;2023-05-10T13:00:45;3.70;;;3.17;;
45764;SDS011;31474;45.332;10.230;2023-05-10T13:03:11;5.32;;;4.60;;
45764;SDS011;31474;45.332;10.230;2023-05-10T13:05:37;4.15;;;3.70;;
45764;SDS011;31474;45.332;10.230;2023-05-10T13:08:03;4.53;;;3.75;;
45764;SDS011;31474;45.332;10.230;2023-05-10T13:10:29;4.53;;;4.10;;
45764;SDS011;31474;45.332;10.230;2023-05-10T13:12:56;4.93;;;4.00;;
45764;SDS011;31474;45.332;10.230;2023-05-10T13:15:23;4.78;;;4.15;;
45764;SDS011;31474;45.332;10.230;2023-05-10T13:17:49;4.40;;;4.00;;
45764;SDS011;31474;45.332;10.230;2023-05-10T13:20:15;4.25;;;3.85;;
45764;SDS011;31474;45.332;10.230;2023-05-10T13:22:41;4.78;;;3.95;;
45764;SDS011;31474;45.332;10.230;2023-05-10T13:25:08;4.43;;;3.95;;
45764;SDS011;31474;45.332;10.230;2023-05-10T13:27:34;4.20;;;3.78;;
45764;SDS011;31474;45.332;10.230;2023-05-10T13:29:59;7.35;;;4.50;;
45764;SDS011;31474;45.332;10.230;2023-05-10T13:32:26;4.63;;;3.83;;
45764;SDS011;31474;45.332;10.230;2023-05-10T13:34:51;5.35;;;4.10;;
45764;SDS011;31474;45.332;10.230;2023-05-10T13:37:17;4.80;;;3.28;;
45764;SDS011;31474;45.332;10.230;2023-05-10T13:39:42;6.28;;;4.15;;
45764;SDS011;31474;45.332;10.230;2023-05-10T13:42:08;4.93;;;4.00;;
45764;SDS011;31474;45.332;10.230;2023-05-10T13:44:34;5.25;;;4.55;;
45764;SDS011;31474;45.332;10.230;2023-05-10T13:47:01;4.57;;;3.67;;
45764;SDS011;31474;45.332;10.230;2023-05-10T13:49:26;3.90;;;3.55;;
45764;SDS011;31474;45.332;10.230;2023-05-10T13:51:52;4.35;;;3.90;;
45764;SDS011;31474;45.332;10.230;2023-05-10T13:54:17;5.47;;;3.85;;
45764;SDS011;31474;45.332;10.230;2023-05-10T13:56:47;4.18;;;3.67;;
45764;SDS011;31474;45.332;10.230;2023-05-10T13:59:13;4.47;;;3.92;;
45764;SDS011;31474;45.332;10.230;2023-05-10T14:01:39;4.20;;;3.67;;
45764;SDS011;31474;45.332;10.230;2023-05-10T14:04:05;3.97;;;3.58;;
45764;SDS011;31474;45.332;10.230;2023-05-10T14:06:33;5.00;;;4.18;;
45764;SDS011;31474;45.332;10.230;2023-05-10T14:08:59;5.50;;;4.68;;
45764;SDS011;31474;45.332;10.230;2023-05-10T14:11:24;5.45;;;4.93;;
45764;SDS011;31474;45.332;10.230;2023-05-10T14:13:50;5.95;;;4.80;;
45764;SDS011;31474;45.332;10.230;2023-05-10T14:16:15;4.97;;;4.18;;
45764;SDS011;31474;45.332;10.230;2023-05-10T14:18:41;4.47;;;4.07;;
45764;SDS011;31474;45.332;10.230;2023-05-10T14:21:07;4.85;;;4.40;;
45764;SDS011;31474;45.332;10.230;2023-05-10T14:23:32;5.55;;;4.65;;
45764;SDS011;31474;45.332;10.230;2023-05-10T14:25:58;4.35;;;3.78;;
45764;SDS011;31474;45.332;10.230;2023-05-10T14:28:23;6.85;;;4.30;;
45764;SDS011;31474;45.332;10.230;2023-05-10T14:30:49;4.85;;;4.35;;
45764;SDS011;31474;45.332;10.230;2023-05-10T14:33:16;5.32;;;4.28;;
45764;SDS011;31474;45.332;10.230;2023-05-10T14:35:42;4.57;;;4.10;;
45764;SDS011;31474;45.332;10.230;2023-05-10T14:38:07;4.25;;;3.83;;
45764;SDS011;31474;45.332;10.230;2023-05-10T14:40:33;4.25;;;3.67;;
45764;SDS011;31474;45.332;10.230;2023-05-10T14:42:59;5.60;;;4.38;;
45764;SDS011;31474;45.332;10.230;2023-05-10T14:45:25;4.00;;;3.60;;
45764;SDS011;31474;45.332;10.230;2023-05-10T14:47:51;4.45;;;4.05;;
45764;SDS011;31474;45.332;10.230;2023-05-10T14:50:17;4.40;;;3.95;;
45764;SDS011;31474;45.332;10.230;2023-05-10T14:52:43;4.45;;;4.00;;
45764;SDS011;31474;45.332;10.230;2023-05-10T14:55:09;5.43;;;4.60;;
45764;SDS011;31474;45.332;10.230;2023-05-10T14:57:35;4.65;;;4.10;;
45764;SDS011;31474;45.332;10.230;2023-05-10T15:00:00;5.68;;;4.25;;
45764;SDS011;31474;45.332;10.230;2023-05-10T15:02:26;4.45;;;4.05;;
45764;SDS011;31474;45.332;10.230;2023-05-10T15:04:52;5.38;;;4.28;;
45764;SDS011;31474;45.332;10.230;2023-05-10T15:07:17;4.85;;;4.35;;
45764;SDS011;31474;45.332;10.230;2023-05-10T15:09:44;4.13;;;3.72;;
45764;SDS011;31474;45.332;10.230;2023-05-10T15:12:10;5.80;;;4.05;;
45764;SDS011;31474;45.332;10.230;2023-05-10T15:14:36;4.45;;;4.05;;